createdAt,value
2019-02-19T00:00:35.476Z,0.00
2019-02-19T00:01:35.476Z,0.00
2019-02-19T00:02:35.357Z,0.00
2019-02-19T00:03:35.309Z,0.00
2019-02-19T00:04:35.246Z,0.00
2019-02-19T00:05:35.191Z,0.00
2019-02-19T00:06:35.150Z,0.00
2019-02-19T00:07:35.130Z,0.00
2019-02-19T00:08:35.044Z,0.00
2019-02-19T00:09:34.977Z,0.00
2019-02-19T00:10:34.959Z,0.00
2019-02-19T00:11:34.868Z,0.00
2019-02-19T00:12:34.838Z,0.00
2019-02-19T00:13:34.781Z,0.00
2019-02-19T00:14:34.708Z,0.00
2019-02-19T00:15:34.655Z,0.00
2019-02-19T00:16:34.590Z,0.00
2019-02-19T00:17:34.565Z,0.00
2019-02-19T00:18:34.478Z,0.00
2019-02-19T00:19:34.424Z,0.00
2019-02-19T00:20:34.359Z,0.00
2019-02-19T00:21:34.320Z,0.00
2019-02-19T00:22:34.338Z,0.00
2019-02-19T00:23:34.222Z,0.00
2019-02-19T00:24:34.163Z,0.00
2019-02-19T00:25:34.094Z,0.00
2019-02-19T00:26:34.054Z,0.00
2019-02-19T00:27:34.035Z,0.00
2019-02-19T00:28:33.935Z,0.00
2019-02-19T00:29:33.880Z,0.00
2019-02-19T00:30:33.846Z,0.00
2019-02-19T00:31:33.766Z,0.00
2019-02-19T00:32:33.788Z,0.00
2019-02-19T00:33:33.667Z,0.00
2019-02-19T00:34:33.599Z,0.00
2019-02-19T00:35:33.550Z,0.00
2019-02-19T00:36:33.503Z,0.00
2019-02-19T00:37:33.452Z,0.00
2019-02-19T00:38:33.398Z,0.00
2019-02-19T00:39:33.362Z,0.00
2019-02-19T00:40:33.277Z,0.00
2019-02-19T00:41:33.228Z,0.00
2019-02-19T00:42:33.179Z,0.00
2019-02-19T00:43:33.115Z,0.00
2019-02-19T00:44:33.050Z,0.00
2019-02-19T00:45:32.997Z,0.00
2019-02-19T00:46:32.942Z,0.00
2019-02-19T00:47:32.938Z,0.00
2019-02-19T00:48:32.843Z,0.00
2019-02-19T00:49:32.777Z,0.00
2019-02-19T00:50:32.726Z,0.00
2019-02-19T00:51:32.654Z,0.00
2019-02-19T00:52:32.636Z,0.00
2019-02-19T00:53:32.559Z,0.00
2019-02-19T00:54:32.509Z,0.00
2019-02-19T00:55:32.438Z,0.00
2019-02-19T00:56:32.384Z,0.00
2019-02-19T00:57:32.360Z,0.00
2019-02-19T00:58:32.274Z,0.00
2019-02-19T00:59:32.233Z,0.00
2019-02-19T01:00:32.182Z,0.00
2019-02-19T01:01:32.116Z,0.00
2019-02-19T01:02:32.101Z,0.00
2019-02-19T01:03:32.006Z,0.00
2019-02-19T01:04:31.951Z,0.00
2019-02-19T01:05:31.888Z,0.00
2019-02-19T01:06:31.872Z,0.00
2019-02-19T01:07:31.797Z,0.00
2019-02-19T01:08:31.717Z,0.00
2019-02-19T01:09:31.694Z,0.00
2019-02-19T01:10:31.613Z,0.00
2019-02-19T01:11:31.569Z,0.00
2019-02-19T01:12:31.528Z,0.00
2019-02-19T01:13:31.454Z,0.00
2019-02-19T01:14:31.388Z,0.00
2019-02-19T01:15:31.348Z,0.00
2019-02-19T01:16:31.277Z,0.00
2019-02-19T01:17:31.278Z,0.00
2019-02-19T01:18:31.169Z,0.00
2019-02-19T01:19:31.140Z,0.00
2019-02-19T01:20:31.066Z,0.00
2019-02-19T01:21:31.017Z,0.00
2019-02-19T01:22:30.984Z,0.00
2019-02-19T01:23:30.899Z,0.00
2019-02-19T01:24:30.880Z,0.00
2019-02-19T01:25:30.818Z,0.00
2019-02-19T01:26:30.740Z,0.00
2019-02-19T01:27:30.726Z,0.00
2019-02-19T01:28:30.639Z,0.00
2019-02-19T01:29:30.575Z,0.00
2019-02-19T01:30:30.523Z,0.00
2019-02-19T01:31:30.466Z,0.00
2019-02-19T01:32:30.434Z,0.00
2019-02-19T01:33:30.359Z,0.00
2019-02-19T01:34:30.299Z,0.00
2019-02-19T01:35:30.232Z,0.00
2019-02-19T01:36:30.185Z,0.00
2019-02-19T01:37:30.143Z,0.00
2019-02-19T01:38:30.082Z,0.00
2019-02-19T01:39:30.033Z,0.00
2019-02-19T01:40:29.974Z,0.00
2019-02-19T01:41:29.922Z,0.00
2019-02-19T01:42:29.884Z,0.00
2019-02-19T01:43:29.797Z,0.00
2019-02-19T01:44:29.740Z,0.00
2019-02-19T01:45:34.163Z,0.00
2019-02-19T01:46:29.643Z,0.00
2019-02-19T01:47:29.612Z,0.00
2019-02-19T01:48:29.526Z,0.00
2019-02-19T01:49:29.471Z,0.00
2019-02-19T01:50:29.419Z,0.00
2019-02-19T01:51:29.360Z,0.00
2019-02-19T01:52:29.304Z,0.00
2019-02-19T01:53:29.281Z,0.00
2019-02-19T01:54:29.193Z,0.00
2019-02-19T01:55:29.153Z,0.00
2019-02-19T01:56:29.079Z,0.00
2019-02-19T01:57:29.032Z,0.00
2019-02-19T01:58:28.998Z,0.00
2019-02-19T01:59:28.912Z,0.00
2019-02-19T02:00:28.871Z,0.00
2019-02-19T02:01:28.816Z,0.00
2019-02-19T02:02:28.752Z,0.00
2019-02-19T02:03:28.716Z,0.00
2019-02-19T02:04:28.644Z,0.00
2019-02-19T02:05:28.585Z,0.00
2019-02-19T02:06:28.552Z,0.00
2019-02-19T02:07:28.468Z,0.00
2019-02-19T02:08:28.465Z,0.00
2019-02-19T02:09:28.364Z,0.00
2019-02-19T02:10:28.294Z,0.00
2019-02-19T02:11:28.266Z,0.00
2019-02-19T02:12:28.188Z,0.00
2019-02-19T02:13:28.357Z,0.00
2019-02-19T02:14:28.093Z,0.00
2019-02-19T02:15:28.034Z,0.00
2019-02-19T02:16:27.973Z,0.00
2019-02-19T02:17:27.928Z,0.00
2019-02-19T02:18:27.921Z,0.00
2019-02-19T02:19:27.815Z,0.00
2019-02-19T02:20:27.778Z,0.00
2019-02-19T02:21:27.702Z,0.00
2019-02-19T02:22:27.660Z,0.00
2019-02-19T02:23:27.617Z,0.00
2019-02-19T02:24:27.555Z,0.00
2019-02-19T02:25:27.486Z,0.00
2019-02-19T02:26:27.430Z,0.00
2019-02-19T02:27:27.382Z,0.00
2019-02-19T02:28:27.346Z,0.00
2019-02-19T02:29:27.291Z,0.00
2019-02-19T02:30:27.206Z,0.00
2019-02-19T02:31:27.145Z,0.00
2019-02-19T02:32:27.093Z,0.00
2019-02-19T02:33:27.059Z,0.00
2019-02-19T02:34:26.997Z,0.00
2019-02-19T02:35:26.919Z,0.00
2019-02-19T02:36:26.890Z,0.00
2019-02-19T02:37:26.822Z,0.00
2019-02-19T02:38:26.789Z,0.00
2019-02-19T02:39:26.773Z,0.00
2019-02-19T02:40:26.643Z,0.00
2019-02-19T02:41:26.594Z,0.00
2019-02-19T02:42:26.542Z,0.00
2019-02-19T02:43:26.509Z,0.00
2019-02-19T02:44:26.429Z,0.00
2019-02-19T02:45:26.369Z,0.00
2019-02-19T02:46:26.317Z,0.00
2019-02-19T02:47:26.264Z,0.00
2019-02-19T02:48:26.244Z,0.00
2019-02-19T02:49:26.151Z,0.00
2019-02-19T02:50:26.098Z,0.00
2019-02-19T02:51:26.041Z,0.00
2019-02-19T02:52:25.986Z,0.00
2019-02-19T02:53:25.953Z,0.00
2019-02-19T02:54:25.875Z,0.00
2019-02-19T02:55:25.831Z,0.00
2019-02-19T02:56:25.774Z,0.00
2019-02-19T02:57:25.710Z,0.00
2019-02-19T02:58:25.692Z,0.00
2019-02-19T02:59:25.603Z,0.00
2019-02-19T03:00:25.547Z,0.00
2019-02-19T03:01:25.488Z,0.00
2019-02-19T03:02:25.436Z,0.00
2019-02-19T03:03:25.405Z,0.00
2019-02-19T03:04:25.328Z,0.00
2019-02-19T03:05:25.451Z,0.00
2019-02-19T03:06:25.207Z,0.00
2019-02-19T03:07:25.890Z,0.00
2019-02-19T03:08:25.130Z,0.00
2019-02-19T03:09:25.049Z,0.00
2019-02-19T03:10:24.986Z,0.00
2019-02-19T03:11:24.934Z,0.00
2019-02-19T03:12:24.877Z,0.00
2019-02-19T03:13:24.851Z,0.00
2019-02-19T03:14:24.783Z,0.00
2019-02-19T03:15:24.694Z,0.00
2019-02-19T03:16:24.637Z,0.00
2019-02-19T03:17:24.609Z,0.00
2019-02-19T03:18:24.577Z,0.00
2019-02-19T03:19:24.507Z,0.00
2019-02-19T03:20:24.431Z,0.00
2019-02-19T03:21:24.373Z,0.00
2019-02-19T03:22:24.332Z,0.00
2019-02-19T03:23:24.318Z,0.00
2019-02-19T03:24:24.222Z,0.00
2019-02-19T03:25:24.157Z,0.00
2019-02-19T03:26:24.104Z,0.00
2019-02-19T03:27:24.045Z,0.00
2019-02-19T03:28:24.012Z,0.00
2019-02-19T03:29:23.980Z,0.00
2019-02-19T03:30:23.879Z,0.00
2019-02-19T03:31:23.822Z,0.00
2019-02-19T03:32:23.801Z,0.00
2019-02-19T03:33:23.720Z,0.00
2019-02-19T03:34:23.720Z,0.00
2019-02-19T03:35:23.606Z,0.00
2019-02-19T03:36:23.560Z,0.00
2019-02-19T03:37:23.518Z,0.00
2019-02-19T03:38:23.453Z,0.00
2019-02-19T03:39:23.439Z,0.00
2019-02-19T03:40:23.351Z,0.00
2019-02-19T03:41:23.284Z,0.00
2019-02-19T03:42:23.263Z,0.00
2019-02-19T03:43:23.180Z,0.00
2019-02-19T03:44:23.155Z,0.00
2019-02-19T03:45:23.073Z,0.00
2019-02-19T03:46:23.015Z,0.00
2019-02-19T03:47:22.961Z,0.00
2019-02-19T03:48:22.913Z,0.00
2019-02-19T03:49:22.877Z,0.00
2019-02-19T03:50:22.800Z,0.00
2019-02-19T03:51:22.752Z,0.00
2019-02-19T03:52:22.693Z,0.00
2019-02-19T03:53:22.649Z,0.00
2019-02-19T03:54:22.605Z,0.00
2019-02-19T03:55:22.511Z,0.00
2019-02-19T03:56:22.467Z,0.00
2019-02-19T03:57:22.410Z,0.00
2019-02-19T03:58:22.352Z,0.00
2019-02-19T03:59:22.322Z,0.00
2019-02-19T04:00:22.234Z,0.00
2019-02-19T04:01:22.197Z,0.00
2019-02-19T04:02:22.136Z,0.00
2019-02-19T04:03:22.077Z,0.00
2019-02-19T04:04:22.081Z,0.00
2019-02-19T04:05:22.002Z,0.00
2019-02-19T04:06:21.928Z,0.00
2019-02-19T04:07:21.863Z,0.00
2019-02-19T04:08:21.821Z,0.00
2019-02-19T04:09:21.778Z,0.00
2019-02-19T04:10:21.711Z,0.00
2019-02-19T04:11:21.643Z,0.00
2019-02-19T04:12:21.603Z,0.00
2019-02-19T04:13:21.549Z,0.00
2019-02-19T04:14:21.511Z,0.00
2019-02-19T04:15:21.424Z,0.00
2019-02-19T04:16:21.633Z,0.00
2019-02-19T04:17:21.324Z,0.00
2019-02-19T04:18:21.271Z,0.00
2019-02-19T04:19:21.231Z,0.00
2019-02-19T04:20:21.170Z,0.00
2019-02-19T04:21:21.108Z,0.00
2019-02-19T04:22:21.055Z,0.00
2019-02-19T04:23:21.001Z,0.00
2019-02-19T04:24:20.965Z,0.00
2019-02-19T04:25:20.902Z,0.00
2019-02-19T04:26:20.848Z,0.00
2019-02-19T04:27:20.780Z,0.00
2019-02-19T04:28:20.744Z,0.00
2019-02-19T04:29:20.711Z,0.00
2019-02-19T04:30:20.624Z,0.00
2019-02-19T04:31:20.565Z,0.00
2019-02-19T04:32:20.516Z,0.00
2019-02-19T04:33:20.474Z,0.00
2019-02-19T04:34:20.450Z,0.00
2019-02-19T04:35:20.349Z,0.00
2019-02-19T04:36:20.316Z,0.00
2019-02-19T04:37:20.245Z,0.00
2019-02-19T04:38:20.183Z,0.00
2019-02-19T04:39:20.160Z,0.00
2019-02-19T04:40:20.077Z,0.00
2019-02-19T04:41:20.025Z,0.00
2019-02-19T04:42:19.975Z,0.00
2019-02-19T04:43:19.931Z,0.00
2019-02-19T04:44:19.894Z,0.00
2019-02-19T04:45:19.823Z,0.00
2019-02-19T04:46:19.763Z,0.00
2019-02-19T04:47:19.704Z,0.00
2019-02-19T04:48:19.646Z,0.00
2019-02-19T04:49:19.682Z,0.00
2019-02-19T04:50:19.838Z,0.00
2019-02-19T04:51:19.479Z,0.00
2019-02-19T04:52:19.434Z,0.00
2019-02-19T04:53:19.388Z,0.00
2019-02-19T04:54:19.351Z,0.00
2019-02-19T04:55:19.278Z,0.00
2019-02-19T04:56:19.224Z,0.00
2019-02-19T04:57:19.188Z,0.00
2019-02-19T04:58:19.108Z,0.00
2019-02-19T04:59:19.184Z,0.00
2019-02-19T05:00:19.010Z,0.00
2019-02-19T05:01:18.975Z,0.00
2019-02-19T05:02:18.928Z,0.00
2019-02-19T05:03:18.857Z,0.00
2019-02-19T05:04:18.787Z,0.00
2019-02-19T05:05:18.751Z,0.00
2019-02-19T05:06:18.729Z,0.00
2019-02-19T05:07:18.624Z,0.00
2019-02-19T05:08:18.574Z,0.00
2019-02-19T05:09:18.517Z,0.00
2019-02-19T05:10:18.525Z,0.00
2019-02-19T05:11:18.499Z,0.00
2019-02-19T05:12:18.359Z,0.00
2019-02-19T05:13:18.369Z,0.00
2019-02-19T05:14:18.289Z,0.00
2019-02-19T05:15:18.241Z,0.00
2019-02-19T05:16:18.168Z,0.00
2019-02-19T05:17:18.077Z,0.00
2019-02-19T05:18:18.038Z,0.00
2019-02-19T05:19:17.975Z,0.00
2019-02-19T05:20:17.957Z,0.00
2019-02-19T05:21:17.866Z,0.00
2019-02-19T05:22:17.817Z,0.00
2019-02-19T05:23:17.760Z,0.00
2019-02-19T05:24:17.716Z,0.00
2019-02-19T05:25:17.680Z,0.00
2019-02-19T05:26:17.597Z,0.00
2019-02-19T05:27:17.535Z,0.00
2019-02-19T05:28:17.516Z,0.00
2019-02-19T05:29:17.434Z,0.00
2019-02-19T05:30:17.399Z,0.00
2019-02-19T05:31:17.323Z,0.00
2019-02-19T05:32:17.295Z,0.00
2019-02-19T05:33:17.227Z,0.00
2019-02-19T05:34:17.194Z,0.00
2019-02-19T05:35:17.151Z,0.00
2019-02-19T05:36:17.081Z,0.00
2019-02-19T05:37:17.021Z,0.00
2019-02-19T05:38:16.955Z,0.00
2019-02-19T05:39:16.886Z,0.00
2019-02-19T05:40:16.926Z,0.00
2019-02-19T05:41:16.780Z,0.00
2019-02-19T05:42:16.759Z,0.00
2019-02-19T05:43:16.670Z,0.00
2019-02-19T05:44:16.628Z,0.00
2019-02-19T05:45:16.598Z,0.00
2019-02-19T05:46:16.514Z,0.00
2019-02-19T05:47:16.494Z,0.00
2019-02-19T05:48:16.406Z,0.00
2019-02-19T05:49:16.343Z,0.00
2019-02-19T05:50:16.306Z,0.00
2019-02-19T05:51:16.241Z,0.00
2019-02-19T05:52:16.188Z,0.00
2019-02-19T05:53:16.150Z,0.00
2019-02-19T05:54:16.110Z,0.00
2019-02-19T05:55:16.109Z,0.00
2019-02-19T05:56:15.996Z,0.00
2019-02-19T05:57:15.911Z,0.00
2019-02-19T05:58:15.898Z,0.00
2019-02-19T05:59:15.848Z,0.00
2019-02-19T06:00:15.848Z,0.00
2019-02-19T06:01:15.703Z,0.00
2019-02-19T06:02:15.647Z,0.00
2019-02-19T06:03:15.633Z,0.00
2019-02-19T06:04:15.535Z,0.00
2019-02-19T06:05:15.498Z,0.00
2019-02-19T06:06:15.434Z,0.00
2019-02-19T06:07:15.368Z,0.00
2019-02-19T06:08:15.325Z,0.00
2019-02-19T06:09:15.284Z,0.00
2019-02-19T06:10:15.285Z,0.00
2019-02-19T06:11:15.152Z,0.00
2019-02-19T06:12:15.106Z,4.00
2019-02-19T06:13:15.041Z,4.00
2019-02-19T06:14:14.994Z,4.00
2019-02-19T06:15:14.962Z,4.00
2019-02-19T06:16:14.885Z,4.00
2019-02-19T06:17:14.822Z,4.00
2019-02-19T06:18:14.998Z,8.00
2019-02-19T06:19:14.710Z,8.00
2019-02-19T06:20:14.683Z,8.00
2019-02-19T06:21:14.606Z,8.00
2019-02-19T06:22:14.554Z,12.00
2019-02-19T06:23:14.501Z,16.00
2019-02-19T06:24:14.476Z,16.00
2019-02-19T06:25:14.469Z,20.00
2019-02-19T06:26:14.335Z,24.00
2019-02-19T06:27:14.280Z,24.00
2019-02-19T06:28:14.229Z,28.00
2019-02-19T06:29:14.174Z,28.00
2019-02-19T06:30:14.133Z,36.00
2019-02-19T06:31:14.087Z,40.00
2019-02-19T06:32:14.007Z,40.00
2019-02-19T06:33:13.955Z,44.00
2019-02-19T06:34:14.303Z,52.00
2019-02-19T06:35:13.868Z,52.00
2019-02-19T06:36:13.797Z,48.00
2019-02-19T06:37:13.749Z,56.00
2019-02-19T06:38:13.680Z,64.00
2019-02-19T06:39:13.627Z,64.00
2019-02-19T06:40:13.644Z,60.00
2019-02-19T06:41:13.515Z,56.00
2019-02-19T06:42:13.461Z,60.00
2019-02-19T06:43:13.414Z,68.00
2019-02-19T06:44:13.359Z,68.00
2019-02-19T06:45:13.306Z,72.00
2019-02-19T06:46:13.274Z,68.00
2019-02-19T06:47:13.210Z,72.00
2019-02-19T06:48:13.147Z,80.00
2019-02-19T06:49:13.091Z,100.00
2019-02-19T06:50:13.045Z,100.00
2019-02-19T06:51:13.031Z,116.00
2019-02-19T06:52:12.928Z,136.00
2019-02-19T06:53:12.886Z,164.00
2019-02-19T06:54:12.833Z,148.00
2019-02-19T06:55:12.764Z,188.00
2019-02-19T06:56:12.732Z,152.00
2019-02-19T06:57:12.689Z,184.00
2019-02-19T06:58:12.613Z,204.00
2019-02-19T06:59:12.549Z,204.00
2019-02-19T07:00:12.490Z,232.00
2019-02-19T07:01:12.474Z,276.00
2019-02-19T07:02:12.379Z,248.00
2019-02-19T07:03:12.317Z,248.00
2019-02-19T07:04:12.284Z,356.00
2019-02-19T07:05:12.224Z,336.00
2019-02-19T07:06:12.199Z,352.00
2019-02-19T07:07:12.144Z,380.00
2019-02-19T07:08:12.075Z,296.00
2019-02-19T07:09:12.001Z,384.00
2019-02-19T07:10:11.961Z,416.00
2019-02-19T07:11:11.934Z,392.00
2019-02-19T07:12:11.864Z,472.00
2019-02-19T07:13:11.794Z,496.00
2019-02-19T07:14:11.730Z,400.00
2019-02-19T07:15:11.681Z,464.00
2019-02-19T07:16:11.657Z,496.00
2019-02-19T07:17:15.643Z,532.00
2019-02-19T07:18:11.507Z,772.00
2019-02-19T07:19:11.470Z,744.00
2019-02-19T07:20:11.417Z,612.00
2019-02-19T07:21:11.391Z,672.00
2019-02-19T07:22:11.310Z,720.00
2019-02-19T07:23:11.259Z,688.00
2019-02-19T07:24:11.177Z,964.00
2019-02-19T07:25:11.150Z,776.00
2019-02-19T07:26:11.095Z,824.00
2019-02-19T07:27:11.053Z,836.00
2019-02-19T07:28:10.985Z,708.00
2019-02-19T07:29:10.928Z,716.00
2019-02-19T07:30:10.904Z,724.00
2019-02-19T07:31:10.842Z,904.00
2019-02-19T07:32:10.764Z,768.00
2019-02-19T07:33:10.736Z,1020.00
2019-02-19T07:34:10.639Z,1028.00
2019-02-19T07:35:10.594Z,880.00
2019-02-19T07:36:10.594Z,940.00
2019-02-19T07:37:10.509Z,784.00
2019-02-19T07:38:10.440Z,740.00
2019-02-19T07:39:10.385Z,1040.00
2019-02-19T07:40:10.327Z,804.00
2019-02-19T07:41:10.311Z,1100.00
2019-02-19T07:42:10.205Z,988.00
2019-02-19T07:43:10.182Z,1160.00
2019-02-19T07:44:10.128Z,1576.00
2019-02-19T07:45:10.062Z,1280.00
2019-02-19T07:46:10.034Z,1588.00
2019-02-19T07:47:09.942Z,2068.00
2019-02-19T07:48:09.890Z,1608.00
2019-02-19T07:49:09.836Z,1980.00
2019-02-19T07:50:09.785Z,2232.00
2019-02-19T07:51:09.754Z,1836.00
2019-02-19T07:52:09.683Z,2192.00
2019-02-19T07:53:09.642Z,1860.00
2019-02-19T07:54:09.573Z,1652.00
2019-02-19T07:55:09.516Z,1732.00
2019-02-19T07:56:09.489Z,1920.00
2019-02-19T07:57:09.417Z,1856.00
2019-02-19T07:58:09.341Z,1868.00
2019-02-19T07:59:09.300Z,1996.00
2019-02-19T08:00:09.250Z,2600.00
2019-02-19T08:01:09.214Z,2940.00
2019-02-19T08:02:09.144Z,2784.00
2019-02-19T08:03:09.091Z,2880.00
2019-02-19T08:04:09.030Z,2912.00
2019-02-19T08:05:08.975Z,2792.00
2019-02-19T08:06:08.964Z,2568.00
2019-02-19T08:07:08.879Z,2764.00
2019-02-19T08:08:08.810Z,2496.00
2019-02-19T08:09:08.762Z,2500.00
2019-02-19T08:10:08.701Z,2756.00
2019-02-19T08:11:08.698Z,2980.00
2019-02-19T08:12:08.600Z,2988.00
2019-02-19T08:13:08.567Z,2620.00
2019-02-19T08:14:08.491Z,1988.00
2019-02-19T08:15:08.443Z,2144.00
2019-02-19T08:16:08.427Z,2108.00
2019-02-19T08:17:08.336Z,1576.00
2019-02-19T08:18:08.284Z,1896.00
2019-02-19T08:19:08.289Z,1472.00
2019-02-19T08:20:15.347Z,1680.00
2019-02-19T08:21:08.126Z,1564.00
2019-02-19T08:22:08.108Z,1476.00
2019-02-19T08:23:08.006Z,1524.00
2019-02-19T08:24:07.951Z,1148.00
2019-02-19T08:25:07.897Z,1500.00
2019-02-19T08:26:07.843Z,1804.00
2019-02-19T08:27:07.830Z,1488.00
2019-02-19T08:28:07.751Z,1428.00
2019-02-19T08:29:13.753Z,1424.00
2019-02-19T08:30:07.652Z,1208.00
2019-02-19T08:31:07.585Z,1988.00
2019-02-19T08:32:07.578Z,1628.00
2019-02-19T08:33:07.472Z,1844.00
2019-02-19T08:34:07.433Z,1792.00
2019-02-19T08:35:07.387Z,1560.00
2019-02-19T08:36:07.322Z,1620.00
2019-02-19T08:37:07.286Z,2292.00
2019-02-19T08:38:07.212Z,1636.00
2019-02-19T08:39:07.155Z,2272.00
2019-02-19T08:40:07.108Z,2096.00
2019-02-19T08:41:07.040Z,2332.00
2019-02-19T08:42:07.018Z,2140.00
2019-02-19T08:43:06.937Z,2660.00
2019-02-19T08:44:08.448Z,2808.00
2019-02-19T08:45:06.833Z,3228.00
2019-02-19T08:46:06.775Z,3408.00
2019-02-19T08:47:06.746Z,3220.00
2019-02-19T08:48:06.685Z,3432.00
2019-02-19T08:49:06.620Z,3656.00
2019-02-19T08:50:06.566Z,2844.00
2019-02-19T08:51:06.527Z,2368.00
2019-02-19T08:52:06.486Z,2136.00
2019-02-19T08:53:06.403Z,1928.00
2019-02-19T08:54:06.344Z,1692.00
2019-02-19T08:55:06.310Z,1556.00
2019-02-19T08:56:06.252Z,1548.00
2019-02-19T08:57:06.215Z,1196.00
2019-02-19T08:58:06.147Z,1580.00
2019-02-19T08:59:06.068Z,1484.00
2019-02-19T09:00:06.032Z,1300.00
2019-02-19T09:01:05.996Z,1008.00
2019-02-19T09:02:05.963Z,960.00
2019-02-19T09:03:05.886Z,1332.00
2019-02-19T09:04:05.803Z,1648.00
2019-02-19T09:05:05.765Z,1636.00
2019-02-19T09:06:05.692Z,1952.00
2019-02-19T09:07:05.696Z,2020.00
2019-02-19T09:08:05.592Z,2496.00
2019-02-19T09:09:05.544Z,2540.00
2019-02-19T09:10:05.484Z,2648.00
2019-02-19T09:11:05.433Z,3600.00
2019-02-19T09:12:05.427Z,4364.00
2019-02-19T09:13:05.335Z,3928.00
2019-02-19T09:14:05.260Z,2224.00
2019-02-19T09:15:05.210Z,2616.00
2019-02-19T09:16:05.211Z,2656.00
2019-02-19T09:17:05.153Z,3452.00
2019-02-19T09:18:05.057Z,3392.00
2019-02-19T09:19:05.005Z,2828.00
2019-02-19T09:20:04.945Z,4308.00
2019-02-19T09:21:04.895Z,4660.00
2019-02-19T09:22:04.860Z,5008.00
2019-02-19T09:23:04.797Z,3476.00
2019-02-19T09:24:09.542Z,5536.00
2019-02-19T09:25:04.678Z,4168.00
2019-02-19T09:26:04.628Z,4800.00
2019-02-19T09:27:04.619Z,3236.00
2019-02-19T09:28:04.523Z,3640.00
2019-02-19T09:29:04.467Z,4820.00
2019-02-19T09:30:04.422Z,5120.00
2019-02-19T09:31:04.374Z,3876.00
2019-02-19T09:32:04.343Z,4396.00
2019-02-19T09:33:04.263Z,5624.00
2019-02-19T09:34:04.207Z,3768.00
2019-02-19T09:35:04.169Z,5680.00
2019-02-19T09:36:04.101Z,4680.00
2019-02-19T09:37:04.075Z,4944.00
2019-02-19T09:38:03.977Z,4456.00
2019-02-19T09:39:03.950Z,4880.00
2019-02-19T09:40:03.906Z,5560.00
2019-02-19T09:41:03.816Z,4540.00
2019-02-19T09:42:03.816Z,4212.00
2019-02-19T09:43:03.714Z,5144.00
2019-02-19T09:44:03.663Z,4252.00
2019-02-19T09:45:03.629Z,4852.00
2019-02-19T09:46:03.587Z,3792.00
2019-02-19T09:47:03.512Z,3480.00
2019-02-19T09:48:03.467Z,4508.00
2019-02-19T09:49:03.410Z,4428.00
2019-02-19T09:50:03.354Z,3520.00
2019-02-19T09:51:03.279Z,3444.00
2019-02-19T09:52:03.239Z,5696.00
2019-02-19T09:53:03.220Z,6040.00
2019-02-19T09:54:03.133Z,5928.00
2019-02-19T09:55:03.078Z,4912.00
2019-02-19T09:56:03.035Z,3860.00
2019-02-19T09:57:02.975Z,3608.00
2019-02-19T09:58:02.967Z,4060.00
2019-02-19T09:59:02.874Z,5564.00
2019-02-19T10:00:02.820Z,5184.00
2019-02-19T10:01:02.775Z,6256.00
2019-02-19T10:02:02.714Z,5176.00
2019-02-19T10:03:02.707Z,6300.00
2019-02-19T10:04:02.632Z,5816.00
2019-02-19T10:05:02.583Z,6588.00
2019-02-19T10:06:02.516Z,7120.00
2019-02-19T10:07:02.494Z,5144.00
2019-02-19T10:08:02.444Z,2992.00
2019-02-19T10:09:02.354Z,4020.00
2019-02-19T10:10:02.306Z,6176.00
2019-02-19T10:11:02.239Z,4808.00
2019-02-19T10:12:02.183Z,4332.00
2019-02-19T10:13:02.162Z,4112.00
2019-02-19T10:14:02.088Z,4432.00
2019-02-19T10:15:02.031Z,4288.00
2019-02-19T10:16:01.973Z,3296.00
2019-02-19T10:17:01.932Z,3564.00
2019-02-19T10:18:09.699Z,2940.00
2019-02-19T10:19:01.824Z,2400.00
2019-02-19T10:20:01.771Z,2500.00
2019-02-19T10:21:01.704Z,4472.00
2019-02-19T10:22:01.671Z,4516.00
2019-02-19T10:23:01.653Z,3816.00
2019-02-19T10:24:01.545Z,3068.00
2019-02-19T10:25:01.496Z,2124.00
2019-02-19T10:26:01.449Z,3644.00
2019-02-19T10:27:01.415Z,5320.00
2019-02-19T10:28:01.367Z,3192.00
2019-02-19T10:29:01.328Z,2888.00
2019-02-19T10:30:01.238Z,2656.00
2019-02-19T10:31:01.190Z,3460.00
2019-02-19T10:32:01.156Z,4556.00
2019-02-19T10:33:01.128Z,4780.00
2019-02-19T10:34:01.036Z,5040.00
2019-02-19T10:35:00.977Z,4284.00
2019-02-19T10:36:00.939Z,5644.00
2019-02-19T10:37:00.872Z,3940.00
2019-02-19T10:38:00.879Z,3136.00
2019-02-19T10:39:00.771Z,4004.00
2019-02-19T10:40:00.708Z,3672.00
2019-02-19T10:41:00.687Z,4828.00
2019-02-19T10:42:00.593Z,5348.00
2019-02-19T10:43:00.606Z,5852.00
2019-02-19T10:44:00.505Z,5056.00
2019-02-19T10:45:00.473Z,7380.00
2019-02-19T10:46:00.397Z,5272.00
2019-02-19T10:47:00.331Z,4736.00
2019-02-19T10:48:00.333Z,3488.00
2019-02-19T10:49:00.262Z,4172.00
2019-02-19T10:50:00.286Z,4240.00
2019-02-19T10:51:00.129Z,5208.00
2019-02-19T10:52:00.080Z,5132.00
2019-02-19T10:53:00.057Z,4892.00
2019-02-19T10:53:59.979Z,3000.00
2019-02-19T10:54:59.941Z,2632.00
2019-02-19T10:55:59.869Z,2992.00
2019-02-19T10:56:59.826Z,3432.00
2019-02-19T10:57:59.785Z,3152.00
2019-02-19T10:58:59.709Z,4100.00
2019-02-19T10:59:59.654Z,4204.00
2019-02-19T11:00:59.596Z,4172.00
2019-02-19T11:01:59.567Z,2548.00
2019-02-19T11:02:59.566Z,3492.00
2019-02-19T11:03:59.447Z,4532.00
2019-02-19T11:04:59.403Z,4488.00
2019-02-19T11:05:59.349Z,2756.00
2019-02-19T11:06:59.292Z,2256.00
2019-02-19T11:07:59.278Z,1932.00
2019-02-19T11:08:59.241Z,2472.00
2019-02-19T11:09:59.158Z,2840.00
2019-02-19T11:10:59.068Z,3032.00
2019-02-19T11:11:59.022Z,3192.00
2019-02-19T11:12:58.996Z,3896.00
2019-02-19T11:13:58.933Z,4800.00
2019-02-19T11:14:58.892Z,3408.00
2019-02-19T11:15:58.814Z,3124.00
2019-02-19T11:16:58.767Z,4116.00
2019-02-19T11:17:58.733Z,4732.00
2019-02-19T11:18:58.672Z,4916.00
2019-02-19T11:19:58.617Z,3992.00
2019-02-19T11:20:58.561Z,4616.00
2019-02-19T11:21:58.510Z,5136.00
2019-02-19T11:22:58.480Z,5732.00
2019-02-19T11:23:58.404Z,4828.00
2019-02-19T11:24:58.336Z,5680.00
2019-02-19T11:25:58.300Z,5644.00
2019-02-19T11:26:58.246Z,5464.00
2019-02-19T11:27:58.184Z,6328.00
2019-02-19T11:28:58.157Z,4436.00
2019-02-19T11:29:58.081Z,2756.00
2019-02-19T11:30:58.018Z,2572.00
2019-02-19T11:31:57.970Z,2996.00
2019-02-19T11:32:57.960Z,4224.00
2019-02-19T11:33:57.907Z,3268.00
2019-02-19T11:34:57.829Z,3928.00
2019-02-19T11:35:57.795Z,2340.00
2019-02-19T11:36:57.726Z,3496.00
2019-02-19T11:37:57.670Z,3996.00
2019-02-19T11:38:57.659Z,3292.00
2019-02-19T11:39:57.582Z,3528.00
2019-02-19T11:40:57.509Z,2472.00
2019-02-19T11:41:57.449Z,4252.00
2019-02-19T11:42:57.404Z,4812.00
2019-02-19T11:43:57.405Z,4740.00
2019-02-19T11:44:57.297Z,6032.00
2019-02-19T11:45:57.244Z,6024.00
2019-02-19T11:46:57.185Z,6212.00
2019-02-19T11:47:57.132Z,5908.00
2019-02-19T11:48:57.133Z,6008.00
2019-02-19T11:49:57.047Z,5204.00
2019-02-19T11:50:56.988Z,5592.00
2019-02-19T11:51:56.938Z,6048.00
2019-02-19T11:52:56.876Z,7192.00
2019-02-19T11:53:56.861Z,7048.00
2019-02-19T11:54:56.796Z,7484.00
2019-02-19T11:55:56.726Z,6732.00
2019-02-19T11:56:56.671Z,5720.00
2019-02-19T11:57:56.623Z,5852.00
2019-02-19T11:58:56.591Z,5792.00
2019-02-19T11:59:56.525Z,5204.00
2019-02-19T12:00:56.461Z,6032.00
2019-02-19T12:01:56.421Z,5996.00
2019-02-19T12:02:56.353Z,6152.00
2019-02-19T12:03:56.373Z,5604.00
2019-02-19T12:04:56.273Z,4460.00
2019-02-19T12:05:56.202Z,4448.00
2019-02-19T12:06:56.140Z,4988.00
2019-02-19T12:07:56.127Z,5304.00
2019-02-19T12:08:56.056Z,5860.00
2019-02-19T12:09:55.979Z,6132.00
2019-02-19T12:10:55.928Z,4828.00
2019-02-19T12:11:55.888Z,4104.00
2019-02-19T12:12:55.827Z,4744.00
2019-02-19T12:13:55.805Z,5236.00
2019-02-19T12:14:55.720Z,5028.00
2019-02-19T12:15:55.685Z,4924.00
2019-02-19T12:16:55.638Z,5448.00
2019-02-19T12:17:55.576Z,4916.00
2019-02-19T12:18:55.557Z,5108.00
2019-02-19T12:19:55.476Z,7124.00
2019-02-19T12:20:55.420Z,7496.00
2019-02-19T12:21:55.379Z,6648.00
2019-02-19T12:22:55.331Z,6900.00
2019-02-19T12:23:55.290Z,7228.00
2019-02-19T12:24:55.219Z,7224.00
2019-02-19T12:25:55.149Z,6032.00
2019-02-19T12:26:55.099Z,5844.00
2019-02-19T12:27:55.045Z,4908.00
2019-02-19T12:28:55.045Z,4876.00
2019-02-19T12:29:54.948Z,4232.00
2019-02-19T12:30:54.891Z,4500.00
2019-02-19T12:31:54.856Z,4048.00
2019-02-19T12:32:54.812Z,4872.00
2019-02-19T12:33:54.900Z,5212.00
2019-02-19T12:34:54.696Z,4332.00
2019-02-19T12:35:54.639Z,3796.00
2019-02-19T12:36:54.585Z,3408.00
2019-02-19T12:37:54.549Z,3820.00
2019-02-19T12:38:54.518Z,3908.00
2019-02-19T12:39:54.435Z,4228.00
2019-02-19T12:40:54.493Z,5816.00
2019-02-19T12:41:54.358Z,5872.00
2019-02-19T12:42:54.310Z,5960.00